sensor_id;sensor_type;location;lat;lon;timestamp;P1;durP1;ratioP1;P2;durP2;ratioP2
55210;SDS011;41082;52.822;6.666;2023-05-19T00:00:41;9.27;;;3.05;;
55210;SDS011;41082;52.822;6.666;2023-05-19T00:03:08;9.90;;;2.80;;
55210;SDS011;41082;52.822;6.666;2023-05-19T00:05:36;10.38;;;3.25;;
55210;SDS011;41082;52.822;6.666;2023-05-19T00:08:09;7.65;;;2.90;;
55210;SDS011;41082;52.822;6.666;2023-05-19T00:10:35;8.68;;;2.97;;
55210;SDS011;41082;52.822;6.666;2023-05-19T00:13:01;6.85;;;2.83;;
55210;SDS011;41082;52.822;6.666;2023-05-19T00:15:27;10.63;;;3.10;;
55210;SDS011;41082;52.822;6.666;2023-05-19T00:17:53;12.18;;;3.08;;
55210;SDS011;41082;52.822;6.666;2023-05-19T00:20:19;10.30;;;3.47;;
55210;SDS011;41082;52.822;6.666;2023-05-19T00:22:45;10.35;;;3.42;;
55210;SDS011;41082;52.822;6.666;2023-05-19T00:25:11;8.55;;;3.28;;
55210;SDS011;41082;52.822;6.666;2023-05-19T00:27:36;9.40;;;3.42;;
55210;SDS011;41082;52.822;6.666;2023-05-19T00:30:02;11.60;;;3.63;;
55210;SDS011;41082;52.822;6.666;2023-05-19T00:32:28;12.00;;;4.00;;
55210;SDS011;41082;52.822;6.666;2023-05-19T00:34:54;9.65;;;3.30;;
55210;SDS011;41082;52.822;6.666;2023-05-19T00:37:19;11.55;;;3.58;;
55210;SDS011;41082;52.822;6.666;2023-05-19T00:39:45;10.68;;;3.65;;
55210;SDS011;41082;52.822;6.666;2023-05-19T00:42:11;9.15;;;3.88;;
55210;SDS011;41082;52.822;6.666;2023-05-19T00:44:37;10.95;;;3.80;;
55210;SDS011;41082;52.822;6.666;2023-05-19T00:47:05;10.63;;;3.63;;
55210;SDS011;41082;52.822;6.666;2023-05-19T00:49:31;10.13;;;3.47;;
55210;SDS011;41082;52.822;6.666;2023-05-19T00:51:56;10.73;;;4.40;;
55210;SDS011;41082;52.822;6.666;2023-05-19T00:54:23;10.43;;;3.50;;
55210;SDS011;41082;52.822;6.666;2023-05-19T00:56:49;11.13;;;3.80;;
55210;SDS011;41082;52.822;6.666;2023-05-19T00:59:15;9.00;;;4.40;;
55210;SDS011;41082;52.822;6.666;2023-05-19T01:01:41;9.05;;;3.20;;
55210;SDS011;41082;52.822;6.666;2023-05-19T01:04:07;9.05;;;3.85;;
55210;SDS011;41082;52.822;6.666;2023-05-19T01:06:35;9.77;;;3.55;;
55210;SDS011;41082;52.822;6.666;2023-05-19T01:09:03;9.45;;;3.97;;
55210;SDS011;41082;52.822;6.666;2023-05-19T01:11:29;12.05;;;4.50;;
55210;SDS011;41082;52.822;6.666;2023-05-19T01:13:54;12.35;;;4.32;;
55210;SDS011;41082;52.822;6.666;2023-05-19T01:28:47;12.10;;;4.28;;
55210;SDS011;41082;52.822;6.666;2023-05-19T01:30:55;13.88;;;4.63;;
55210;SDS011;41082;52.822;6.666;2023-05-19T01:33:23;12.30;;;4.97;;
55210;SDS011;41082;52.822;6.666;2023-05-19T01:35:49;9.27;;;4.70;;
55210;SDS011;41082;52.822;6.666;2023-05-19T01:38:17;10.63;;;4.20;;
55210;SDS011;41082;52.822;6.666;2023-05-19T01:40:44;14.70;;;4.70;;
55210;SDS011;41082;52.822;6.666;2023-05-19T01:43:14;10.35;;;4.53;;
55210;SDS011;41082;52.822;6.666;2023-05-19T01:45:44;11.73;;;4.40;;
55210;SDS011;41082;52.822;6.666;2023-05-19T01:48:10;12.43;;;4.78;;
55210;SDS011;41082;52.822;6.666;2023-05-19T01:50:38;11.43;;;3.83;;
55210;SDS011;41082;52.822;6.666;2023-05-19T01:53:05;9.27;;;3.67;;
55210;SDS011;41082;52.822;6.666;2023-05-19T01:55:30;11.15;;;3.63;;
55210;SDS011;41082;52.822;6.666;2023-05-19T02:05:51;11.82;;;4.85;;
55210;SDS011;41082;52.822;6.666;2023-05-19T02:08:42;9.00;;;3.55;;
55210;SDS011;41082;52.822;6.666;2023-05-19T02:14:19;11.82;;;4.13;;
55210;SDS011;41082;52.822;6.666;2023-05-19T02:16:53;12.00;;;4.07;;
55210;SDS011;41082;52.822;6.666;2023-05-19T02:19:22;9.35;;;3.80;;
55210;SDS011;41082;52.822;6.666;2023-05-19T02:21:50;11.65;;;3.45;;
55210;SDS011;41082;52.822;6.666;2023-05-19T02:24:16;9.98;;;3.30;;
55210;SDS011;41082;52.822;6.666;2023-05-19T02:26:41;8.43;;;3.58;;
55210;SDS011;41082;52.822;6.666;2023-05-19T02:29:08;6.97;;;3.45;;
55210;SDS011;41082;52.822;6.666;2023-05-19T02:31:33;8.98;;;3.38;;
55210;SDS011;41082;52.822;6.666;2023-05-19T02:33:59;10.48;;;3.60;;
55210;SDS011;41082;52.822;6.666;2023-05-19T02:36:24;6.47;;;3.78;;
55210;SDS011;41082;52.822;6.666;2023-05-19T02:38:50;12.50;;;3.78;;
55210;SDS011;41082;52.822;6.666;2023-05-19T02:41:16;7.38;;;2.80;;
55210;SDS011;41082;52.822;6.666;2023-05-19T02:43:41;9.65;;;3.10;;
55210;SDS011;41082;52.822;6.666;2023-05-19T02:46:07;8.23;;;3.53;;
55210;SDS011;41082;52.822;6.666;2023-05-19T02:48:32;7.20;;;3.17;;
55210;SDS011;41082;52.822;6.666;2023-05-19T02:50:58;6.60;;;3.47;;
55210;SDS011;41082;52.822;6.666;2023-05-19T02:53:24;9.50;;;3.35;;
55210;SDS011;41082;52.822;6.666;2023-05-19T02:55:49;10.57;;;3.30;;
55210;SDS011;41082;52.822;6.666;2023-05-19T02:58:15;9.95;;;4.18;;
55210;SDS011;41082;52.822;6.666;2023-05-19T03:00:40;7.00;;;3.85;;
55210;SDS011;41082;52.822;6.666;2023-05-19T03:03:08;9.73;;;3.65;;
55210;SDS011;41082;52.822;6.666;2023-05-19T03:05:34;7.50;;;3.38;;
55210;SDS011;41082;52.822;6.666;2023-05-19T03:08:00;6.28;;;3.33;;
55210;SDS011;41082;52.822;6.666;2023-05-19T03:10:25;8.43;;;3.72;;
55210;SDS011;41082;52.822;6.666;2023-05-19T03:12:51;6.82;;;3.03;;
55210;SDS011;41082;52.822;6.666;2023-05-19T03:15:17;6.97;;;2.88;;
55210;SDS011;41082;52.822;6.666;2023-05-19T03:17:43;6.32;;;3.38;;
55210;SDS011;41082;52.822;6.666;2023-05-19T03:20:09;9.07;;;2.97;;
55210;SDS011;41082;52.822;6.666;2023-05-19T03:22:35;5.50;;;2.92;;
55210;SDS011;41082;52.822;6.666;2023-05-19T03:25:00;6.95;;;3.30;;
55210;SDS011;41082;52.822;6.666;2023-05-19T03:27:27;5.20;;;2.80;;
55210;SDS011;41082;52.822;6.666;2023-05-19T03:29:53;7.22;;;3.03;;
55210;SDS011;41082;52.822;6.666;2023-05-19T03:32:18;5.97;;;2.67;;
55210;SDS011;41082;52.822;6.666;2023-05-19T03:34:44;5.38;;;3.00;;
55210;SDS011;41082;52.822;6.666;2023-05-19T03:37:10;10.43;;;3.25;;
55210;SDS011;41082;52.822;6.666;2023-05-19T03:39:36;8.48;;;2.72;;
55210;SDS011;41082;52.822;6.666;2023-05-19T03:42:02;6.40;;;3.35;;
55210;SDS011;41082;52.822;6.666;2023-05-19T03:44:28;7.53;;;2.50;;
55210;SDS011;41082;52.822;6.666;2023-05-19T03:46:53;8.35;;;3.67;;
55210;SDS011;41082;52.822;6.666;2023-05-19T03:49:19;7.30;;;3.05;;
55210;SDS011;41082;52.822;6.666;2023-05-19T03:51:45;8.30;;;3.67;;
55210;SDS011;41082;52.822;6.666;2023-05-19T03:54:11;8.63;;;3.75;;
55210;SDS011;41082;52.822;6.666;2023-05-19T03:56:37;12.55;;;4.28;;
55210;SDS011;41082;52.822;6.666;2023-05-19T03:59:03;9.48;;;3.65;;
55210;SDS011;41082;52.822;6.666;2023-05-19T04:01:32;7.68;;;3.75;;
55210;SDS011;41082;52.822;6.666;2023-05-19T04:03:58;8.25;;;3.28;;
55210;SDS011;41082;52.822;6.666;2023-05-19T04:06:23;9.82;;;3.35;;
55210;SDS011;41082;52.822;6.666;2023-05-19T04:08:49;11.07;;;3.90;;
55210;SDS011;41082;52.822;6.666;2023-05-19T04:11:15;12.05;;;3.80;;
55210;SDS011;41082;52.822;6.666;2023-05-19T04:13:40;10.98;;;3.58;;
55210;SDS011;41082;52.822;6.666;2023-05-19T04:16:06;10.45;;;4.72;;
55210;SDS011;41082;52.822;6.666;2023-05-19T04:18:31;9.77;;;4.20;;
55210;SDS011;41082;52.822;6.666;2023-05-19T04:20:57;13.20;;;4.10;;
55210;SDS011;41082;52.822;6.666;2023-05-19T04:23:23;10.68;;;4.30;;
55210;SDS011;41082;52.822;6.666;2023-05-19T04:25:48;9.20;;;4.28;;
55210;SDS011;41082;52.822;6.666;2023-05-19T04:28:14;13.00;;;4.50;;
55210;SDS011;41082;52.822;6.666;2023-05-19T04:30:40;13.15;;;4.88;;
55210;SDS011;41082;52.822;6.666;2023-05-19T04:33:06;12.48;;;5.28;;
55210;SDS011;41082;52.822;6.666;2023-05-19T04:35:35;10.32;;;4.07;;
55210;SDS011;41082;52.822;6.666;2023-05-19T04:38:02;13.00;;;4.97;;
55210;SDS011;41082;52.822;6.666;2023-05-19T04:40:27;14.70;;;5.55;;
55210;SDS011;41082;52.822;6.666;2023-05-19T04:42:56;8.80;;;4.63;;
55210;SDS011;41082;52.822;6.666;2023-05-19T04:45:22;14.18;;;5.78;;
55210;SDS011;41082;52.822;6.666;2023-05-19T04:47:50;8.45;;;4.85;;
55210;SDS011;41082;52.822;6.666;2023-05-19T04:50:16;10.15;;;4.97;;
55210;SDS011;41082;52.822;6.666;2023-05-19T04:52:42;12.25;;;5.13;;
55210;SDS011;41082;52.822;6.666;2023-05-19T04:55:11;13.68;;;5.80;;
55210;SDS011;41082;52.822;6.666;2023-05-19T04:57:37;14.18;;;5.50;;
55210;SDS011;41082;52.822;6.666;2023-05-19T05:00:02;16.13;;;5.97;;
55210;SDS011;41082;52.822;6.666;2023-05-19T05:02:32;11.45;;;5.43;;
55210;SDS011;41082;52.822;6.666;2023-05-19T05:04:58;13.73;;;5.32;;
55210;SDS011;41082;52.822;6.666;2023-05-19T05:07:24;12.80;;;5.18;;
55210;SDS011;41082;52.822;6.666;2023-05-19T05:09:49;11.15;;;5.30;;
55210;SDS011;41082;52.822;6.666;2023-05-19T05:12:16;11.38;;;5.65;;
55210;SDS011;41082;52.822;6.666;2023-05-19T05:14:42;12.10;;;6.00;;
55210;SDS011;41082;52.822;6.666;2023-05-19T05:17:09;13.70;;;6.57;;
55210;SDS011;41082;52.822;6.666;2023-05-19T05:19:36;13.57;;;5.75;;
55210;SDS011;41082;52.822;6.666;2023-05-19T05:22:01;11.32;;;5.93;;
55210;SDS011;41082;52.822;6.666;2023-05-19T05:24:28;12.73;;;5.82;;
55210;SDS011;41082;52.822;6.666;2023-05-19T05:26:54;11.55;;;6.28;;
55210;SDS011;41082;52.822;6.666;2023-05-19T05:29:19;16.73;;;5.88;;
55210;SDS011;41082;52.822;6.666;2023-05-19T05:31:45;10.77;;;5.72;;
55210;SDS011;41082;52.822;6.666;2023-05-19T05:34:11;10.75;;;6.30;;
55210;SDS011;41082;52.822;6.666;2023-05-19T05:36:36;8.38;;;5.28;;
55210;SDS011;41082;52.822;6.666;2023-05-19T05:39:02;10.57;;;4.88;;
55210;SDS011;41082;52.822;6.666;2023-05-19T05:41:27;11.02;;;5.07;;
55210;SDS011;41082;52.822;6.666;2023-05-19T05:43:59;12.88;;;5.15;;
55210;SDS011;41082;52.822;6.666;2023-05-19T05:46:28;13.57;;;5.97;;
55210;SDS011;41082;52.822;6.666;2023-05-19T05:48:54;9.30;;;5.53;;
55210;SDS011;41082;52.822;6.666;2023-05-19T05:51:23;10.38;;;5.47;;
55210;SDS011;41082;52.822;6.666;2023-05-19T05:53:51;10.38;;;5.30;;
55210;SDS011;41082;52.822;6.666;2023-05-19T05:56:17;9.90;;;4.90;;
55210;SDS011;41082;52.822;6.666;2023-05-19T05:58:44;12.15;;;5.30;;
55210;SDS011;41082;52.822;6.666;2023-05-19T06:01:09;12.43;;;5.70;;
55210;SDS011;41082;52.822;6.666;2023-05-19T06:03:41;9.75;;;4.60;;
55210;SDS011;41082;52.822;6.666;2023-05-19T06:06:09;11.45;;;4.90;;
55210;SDS011;41082;52.822;6.666;2023-05-19T06:08:35;9.80;;;4.55;;
55210;SDS011;41082;52.822;6.666;2023-05-19T06:11:01;8.05;;;4.07;;
55210;SDS011;41082;52.822;6.666;2023-05-19T06:13:33;10.30;;;4.97;;
55210;SDS011;41082;52.822;6.666;2023-05-19T06:15:59;8.48;;;4.18;;
55210;SDS011;41082;52.822;6.666;2023-05-19T06:18:25;9.55;;;4.35;;
55210;SDS011;41082;52.822;6.666;2023-05-19T06:20:51;8.07;;;3.63;;
55210;SDS011;41082;52.822;6.666;2023-05-19T06:23:17;8.68;;;4.05;;
55210;SDS011;41082;52.822;6.666;2023-05-19T06:25:42;5.95;;;3.72;;
55210;SDS011;41082;52.822;6.666;2023-05-19T06:28:08;7.47;;;3.53;;
55210;SDS011;41082;52.822;6.666;2023-05-19T06:30:34;8.88;;;3.25;;
55210;SDS011;41082;52.822;6.666;2023-05-19T06:33:00;8.38;;;2.72;;
55210;SDS011;41082;52.822;6.666;2023-05-19T06:35:27;8.07;;;2.80;;
55210;SDS011;41082;52.822;6.666;2023-05-19T06:37:54;5.65;;;2.80;;
55210;SDS011;41082;52.822;6.666;2023-05-19T06:40:20;6.63;;;2.63;;
55210;SDS011;41082;52.822;6.666;2023-05-19T06:42:46;8.07;;;2.60;;
55210;SDS011;41082;52.822;6.666;2023-05-19T06:45:12;5.93;;;2.67;;
55210;SDS011;41082;52.822;6.666;2023-05-19T06:47:38;9.50;;;2.75;;
55210;SDS011;41082;52.822;6.666;2023-05-19T06:50:07;5.03;;;2.53;;
55210;SDS011;41082;52.822;6.666;2023-05-19T06:52:33;12.07;;;3.40;;
55210;SDS011;41082;52.822;6.666;2023-05-19T06:54:59;6.80;;;2.75;;
55210;SDS011;41082;52.822;6.666;2023-05-19T06:57:25;6.88;;;3.00;;
55210;SDS011;41082;52.822;6.666;2023-05-19T06:59:51;8.68;;;3.30;;
55210;SDS011;41082;52.822;6.666;2023-05-19T07:02:16;8.00;;;2.83;;
55210;SDS011;41082;52.822;6.666;2023-05-19T07:04:42;7.38;;;2.55;;
55210;SDS011;41082;52.822;6.666;2023-05-19T07:07:08;10.25;;;3.03;;
55210;SDS011;41082;52.822;6.666;2023-05-19T07:09:34;7.43;;;2.80;;
55210;SDS011;41082;52.822;6.666;2023-05-19T07:12:00;9.25;;;3.17;;
55210;SDS011;41082;52.822;6.666;2023-05-19T07:14:25;9.50;;;3.30;;
55210;SDS011;41082;52.822;6.666;2023-05-19T07:16:51;6.55;;;2.88;;
55210;SDS011;41082;52.822;6.666;2023-05-19T07:19:17;7.00;;;2.65;;
55210;SDS011;41082;52.822;6.666;2023-05-19T07:21:46;7.55;;;2.70;;
55210;SDS011;41082;52.822;6.666;2023-05-19T07:24:12;6.07;;;2.22;;
55210;SDS011;41082;52.822;6.666;2023-05-19T07:26:37;9.63;;;2.40;;
55210;SDS011;41082;52.822;6.666;2023-05-19T07:29:03;5.75;;;2.13;;
55210;SDS011;41082;52.822;6.666;2023-05-19T07:31:29;7.95;;;1.92;;
55210;SDS011;41082;52.822;6.666;2023-05-19T07:33:55;7.68;;;1.83;;
55210;SDS011;41082;52.822;6.666;2023-05-19T07:36:21;7.47;;;2.00;;
55210;SDS011;41082;52.822;6.666;2023-05-19T07:38:46;6.70;;;1.65;;
55210;SDS011;41082;52.822;6.666;2023-05-19T07:41:12;6.82;;;1.60;;
55210;SDS011;41082;52.822;6.666;2023-05-19T07:43:38;7.75;;;1.77;;
55210;SDS011;41082;52.822;6.666;2023-05-19T07:46:04;7.10;;;1.80;;
55210;SDS011;41082;52.822;6.666;2023-05-19T07:48:30;6.53;;;1.60;;
55210;SDS011;41082;52.822;6.666;2023-05-19T07:50:55;6.82;;;2.03;;
55210;SDS011;41082;52.822;6.666;2023-05-19T07:53:21;6.68;;;1.58;;
55210;SDS011;41082;52.822;6.666;2023-05-19T07:55:47;5.40;;;1.80;;
55210;SDS011;41082;52.822;6.666;2023-05-19T07:58:13;5.50;;;1.42;;
55210;SDS011;41082;52.822;6.666;2023-05-19T08:00:39;8.70;;;1.85;;
55210;SDS011;41082;52.822;6.666;2023-05-19T08:03:07;7.13;;;1.80;;
55210;SDS011;41082;52.822;6.666;2023-05-19T08:05:34;5.32;;;1.77;;
55210;SDS011;41082;52.822;6.666;2023-05-19T08:08:00;4.35;;;1.20;;
55210;SDS011;41082;52.822;6.666;2023-05-19T08:10:26;6.88;;;1.50;;
55210;SDS011;41082;52.822;6.666;2023-05-19T08:12:51;4.13;;;1.20;;
55210;SDS011;41082;52.822;6.666;2023-05-19T08:15:17;7.70;;;1.27;;
55210;SDS011;41082;52.822;6.666;2023-05-19T08:17:43;7.45;;;1.13;;
55210;SDS011;41082;52.822;6.666;2023-05-19T08:20:09;6.78;;;1.27;;
55210;SDS011;41082;52.822;6.666;2023-05-19T08:22:36;10.30;;;1.45;;
55210;SDS011;41082;52.822;6.666;2023-05-19T08:25:02;5.28;;;1.00;;
55210;SDS011;41082;52.822;6.666;2023-05-19T08:27:31;8.00;;;1.60;;
55210;SDS011;41082;52.822;6.666;2023-05-19T08:29:58;4.68;;;0.90;;
55210;SDS011;41082;52.822;6.666;2023-05-19T08:32:24;5.80;;;1.15;;
55210;SDS011;41082;52.822;6.666;2023-05-19T08:34:49;4.00;;;1.00;;
55210;SDS011;41082;52.822;6.666;2023-05-19T08:37:15;3.63;;;1.10;;
55210;SDS011;41082;52.822;6.666;2023-05-19T08:39:41;6.63;;;1.40;;
55210;SDS011;41082;52.822;6.666;2023-05-19T08:42:06;4.60;;;1.10;;
55210;SDS011;41082;52.822;6.666;2023-05-19T08:44:34;6.38;;;1.77;;
55210;SDS011;41082;52.822;6.666;2023-05-19T08:47:01;6.13;;;1.10;;
55210;SDS011;41082;52.822;6.666;2023-05-19T08:49:39;6.80;;;1.10;;
55210;SDS011;41082;52.822;6.666;2023-05-19T08:55:01;9.48;;;1.55;;
55210;SDS011;41082;52.822;6.666;2023-05-19T08:57:31;8.30;;;1.63;;
55210;SDS011;41082;52.822;6.666;2023-05-19T08:59:57;5.93;;;1.60;;
55210;SDS011;41082;52.822;6.666;2023-05-19T09:02:24;4.20;;;1.02;;
55210;SDS011;41082;52.822;6.666;2023-05-19T09:04:49;5.88;;;1.27;;
55210;SDS011;41082;52.822;6.666;2023-05-19T09:07:16;9.07;;;1.23;;
55210;SDS011;41082;52.822;6.666;2023-05-19T09:09:44;5.53;;;1.00;;
55210;SDS011;41082;52.822;6.666;2023-05-19T09:12:09;7.10;;;1.42;;
55210;SDS011;41082;52.822;6.666;2023-05-19T09:14:36;6.47;;;1.05;;
55210;SDS011;41082;52.822;6.666;2023-05-19T09:17:02;6.10;;;1.10;;
55210;SDS011;41082;52.822;6.666;2023-05-19T09:19:28;5.35;;;0.90;;
55210;SDS011;41082;52.822;6.666;2023-05-19T09:21:57;4.45;;;0.73;;
55210;SDS011;41082;52.822;6.666;2023-05-19T09:24:30;7.07;;;1.00;;
55210;SDS011;41082;52.822;6.666;2023-05-19T09:26:57;5.25;;;0.90;;
55210;SDS011;41082;52.822;6.666;2023-05-19T09:29:23;6.55;;;1.13;;
55210;SDS011;41082;52.822;6.666;2023-05-19T09:31:50;5.50;;;1.25;;
55210;SDS011;41082;52.822;6.666;2023-05-19T09:34:18;2.45;;;0.70;;
55210;SDS011;41082;52.822;6.666;2023-05-19T09:36:45;5.43;;;1.27;;
55210;SDS011;41082;52.822;6.666;2023-05-19T09:39:13;4.68;;;0.82;;
55210;SDS011;41082;52.822;6.666;2023-05-19T09:41:40;5.20;;;0.80;;
55210;SDS011;41082;52.822;6.666;2023-05-19T09:44:06;8.00;;;1.55;;
55210;SDS011;41082;52.822;6.666;2023-05-19T09:46:32;6.63;;;0.93;;
55210;SDS011;41082;52.822;6.666;2023-05-19T09:48:59;4.68;;;1.27;;
55210;SDS011;41082;52.822;6.666;2023-05-19T09:51:36;4.97;;;0.95;;
55210;SDS011;41082;52.822;6.666;2023-05-19T09:54:02;7.20;;;1.05;;
55210;SDS011;41082;52.822;6.666;2023-05-19T09:56:34;7.18;;;1.15;;
55210;SDS011;41082;52.822;6.666;2023-05-19T09:59:01;5.45;;;0.75;;
55210;SDS011;41082;52.822;6.666;2023-05-19T10:01:28;5.93;;;1.35;;
55210;SDS011;41082;52.822;6.666;2023-05-19T10:03:57;7.72;;;1.00;;
55210;SDS011;41082;52.822;6.666;2023-05-19T10:06:24;4.00;;;0.77;;
55210;SDS011;41082;52.822;6.666;2023-05-19T10:08:50;4.78;;;0.85;;
55210;SDS011;41082;52.822;6.666;2023-05-19T10:11:17;5.15;;;1.00;;
55210;SDS011;41082;52.822;6.666;2023-05-19T10:13:43;6.40;;;1.02;;
55210;SDS011;41082;52.822;6.666;2023-05-19T10:16:11;3.58;;;1.00;;
55210;SDS011;41082;52.822;6.666;2023-05-19T10:18:37;7.55;;;0.95;;
55210;SDS011;41082;52.822;6.666;2023-05-19T10:21:05;4.03;;;1.00;;
55210;SDS011;41082;52.822;6.666;2023-05-19T10:23:32;4.47;;;1.10;;
55210;SDS011;41082;52.822;6.666;2023-05-19T10:25:58;7.47;;;1.25;;
55210;SDS011;41082;52.822;6.666;2023-05-19T10:28:26;4.85;;;1.00;;
55210;SDS011;41082;52.822;6.666;2023-05-19T10:30:59;5.30;;;0.93;;
55210;SDS011;41082;52.822;6.666;2023-05-19T10:36:26;4.65;;;1.10;;
55210;SDS011;41082;52.822;6.666;2023-05-19T10:38:59;3.95;;;0.88;;
55210;SDS011;41082;52.822;6.666;2023-05-19T10:41:40;5.47;;;0.93;;
55210;SDS011;41082;52.822;6.666;2023-05-19T10:47:22;4.83;;;1.00;;
55210;SDS011;41082;52.822;6.666;2023-05-19T10:49:48;5.70;;;1.07;;
55210;SDS011;41082;52.822;6.666;2023-05-19T10:52:18;4.78;;;0.90;;
55210;SDS011;41082;52.822;6.666;2023-05-19T10:54:47;5.40;;;0.88;;
55210;SDS011;41082;52.822;6.666;2023-05-19T10:57:13;4.00;;;0.82;;
55210;SDS011;41082;52.822;6.666;2023-05-19T10:59:43;5.35;;;0.95;;
55210;SDS011;41082;52.822;6.666;2023-05-19T11:02:09;7.22;;;1.02;;
55210;SDS011;41082;52.822;6.666;2023-05-19T11:04:55;4.72;;;1.00;;
55210;SDS011;41082;52.822;6.666;2023-05-19T11:07:55;3.88;;;1.23;;
55210;SDS011;41082;52.822;6.666;2023-05-19T11:10:26;4.65;;;0.90;;
55210;SDS011;41082;52.822;6.666;2023-05-19T11:12:51;4.97;;;1.23;;
55210;SDS011;41082;52.822;6.666;2023-05-19T11:15:20;6.55;;;1.35;;
55210;SDS011;41082;52.822;6.666;2023-05-19T11:17:49;5.07;;;0.90;;
55210;SDS011;41082;52.822;6.666;2023-05-19T11:20:23;6.30;;;1.10;;
55210;SDS011;41082;52.822;6.666;2023-05-19T11:23:03;5.43;;;0.82;;
55210;SDS011;41082;52.822;6.666;2023-05-19T11:25:46;7.57;;;0.90;;
55210;SDS011;41082;52.822;6.666;2023-05-19T11:28:20;3.60;;;0.90;;
55210;SDS011;41082;52.822;6.666;2023-05-19T11:30:49;3.72;;;0.50;;
55210;SDS011;41082;52.822;6.666;2023-05-19T11:33:17;5.85;;;1.05;;
55210;SDS011;41082;52.822;6.666;2023-05-19T11:35:44;3.83;;;0.93;;
55210;SDS011;41082;52.822;6.666;2023-05-19T11:38:14;7.18;;;1.27;;
55210;SDS011;41082;52.822;6.666;2023-05-19T11:40:42;5.95;;;1.15;;
55210;SDS011;41082;52.822;6.666;2023-05-19T11:43:08;5.20;;;0.93;;
55210;SDS011;41082;52.822;6.666;2023-05-19T11:45:34;5.47;;;0.80;;
55210;SDS011;41082;52.822;6.666;2023-05-19T11:47:59;6.85;;;0.90;;
55210;SDS011;41082;52.822;6.666;2023-05-19T11:50:27;3.75;;;1.00;;
55210;SDS011;41082;52.822;6.666;2023-05-19T11:52:53;4.15;;;0.73;;
55210;SDS011;41082;52.822;6.666;2023-05-19T11:55:19;6.15;;;0.93;;
55210;SDS011;41082;52.822;6.666;2023-05-19T11:57:58;5.60;;;1.20;;
55210;SDS011;41082;52.822;6.666;2023-05-19T12:00:27;18.05;;;1.33;;
55210;SDS011;41082;52.822;6.666;2023-05-19T12:02:54;7.30;;;1.38;;
55210;SDS011;41082;52.822;6.666;2023-05-19T12:05:24;6.70;;;1.25;;
55210;SDS011;41082;52.822;6.666;2023-05-19T12:07:50;7.32;;;0.95;;
55210;SDS011;41082;52.822;6.666;2023-05-19T12:10:18;4.90;;;1.05;;
55210;SDS011;41082;52.822;6.666;2023-05-19T12:12:50;4.93;;;0.82;;
55210;SDS011;41082;52.822;6.666;2023-05-19T12:15:17;3.60;;;0.88;;
55210;SDS011;41082;52.822;6.666;2023-05-19T12:17:56;3.92;;;0.90;;
55210;SDS011;41082;52.822;6.666;2023-05-19T12:20:23;5.03;;;1.00;;
55210;SDS011;41082;52.822;6.666;2023-05-19T12:22:50;6.85;;;1.08;;
55210;SDS011;41082;52.822;6.666;2023-05-19T12:25:16;6.32;;;1.20;;
55210;SDS011;41082;52.822;6.666;2023-05-19T12:27:43;4.00;;;0.88;;
55210;SDS011;41082;52.822;6.666;2023-05-19T12:30:09;4.57;;;1.63;;
55210;SDS011;41082;52.822;6.666;2023-05-19T12:32:37;5.45;;;0.75;;
55210;SDS011;41082;52.822;6.666;2023-05-19T12:35:03;4.18;;;0.60;;
55210;SDS011;41082;52.822;6.666;2023-05-19T12:37:30;11.50;;;3.10;;
55210;SDS011;41082;52.822;6.666;2023-05-19T12:39:59;7.63;;;1.88;;
55210;SDS011;41082;52.822;6.666;2023-05-19T12:42:26;6.80;;;1.33;;
55210;SDS011;41082;52.822;6.666;2023-05-19T12:44:56;4.93;;;1.00;;
55210;SDS011;41082;52.822;6.666;2023-05-19T12:47:28;5.28;;;1.00;;
55210;SDS011;41082;52.822;6.666;2023-05-19T12:52:24;7.68;;;1.35;;
55210;SDS011;41082;52.822;6.666;2023-05-19T12:57:24;3.88;;;1.25;;
55210;SDS011;41082;52.822;6.666;2023-05-19T12:59:50;5.03;;;1.02;;
55210;SDS011;41082;52.822;6.666;2023-05-19T13:02:16;6.38;;;0.85;;
55210;SDS011;41082;52.822;6.666;2023-05-19T13:04:42;3.67;;;0.80;;
55210;SDS011;41082;52.822;6.666;2023-05-19T13:07:08;5.57;;;1.17;;
55210;SDS011;41082;52.822;6.666;2023-05-19T13:09:34;5.97;;;1.65;;
55210;SDS011;41082;52.822;6.666;2023-05-19T13:12:00;4.88;;;0.70;;
55210;SDS011;41082;52.822;6.666;2023-05-19T13:14:26;4.78;;;0.90;;
55210;SDS011;41082;52.822;6.666;2023-05-19T13:16:51;4.35;;;0.90;;
55210;SDS011;41082;52.822;6.666;2023-05-19T13:19:17;8.90;;;1.30;;
55210;SDS011;41082;52.822;6.666;2023-05-19T13:21:44;6.50;;;0.82;;
55210;SDS011;41082;52.822;6.666;2023-05-19T13:24:14;4.72;;;0.93;;
55210;SDS011;41082;52.822;6.666;2023-05-19T13:26:40;3.97;;;0.95;;
55210;SDS011;41082;52.822;6.666;2023-05-19T13:29:05;5.00;;;0.90;;
55210;SDS011;41082;52.822;6.666;2023-05-19T13:31:31;5.88;;;1.00;;
55210;SDS011;41082;52.822;6.666;2023-05-19T13:33:57;3.35;;;0.80;;
55210;SDS011;41082;52.822;6.666;2023-05-19T13:36:22;4.75;;;1.00;;
55210;SDS011;41082;52.822;6.666;2023-05-19T13:38:49;5.43;;;1.38;;
55210;SDS011;41082;52.822;6.666;2023-05-19T13:41:14;8.10;;;0.90;;
55210;SDS011;41082;52.822;6.666;2023-05-19T13:43:40;6.13;;;1.38;;
55210;SDS011;41082;52.822;6.666;2023-05-19T13:46:05;5.78;;;1.38;;
55210;SDS011;41082;52.822;6.666;2023-05-19T13:48:31;5.45;;;0.93;;
55210;SDS011;41082;52.822;6.666;2023-05-19T13:50:56;5.85;;;1.02;;
55210;SDS011;41082;52.822;6.666;2023-05-19T13:53:22;3.50;;;1.27;;
55210;SDS011;41082;52.822;6.666;2023-05-19T13:55:47;6.93;;;0.93;;
55210;SDS011;41082;52.822;6.666;2023-05-19T13:58:13;4.90;;;1.10;;
55210;SDS011;41082;52.822;6.666;2023-05-19T14:00:40;7.28;;;1.38;;
55210;SDS011;41082;52.822;6.666;2023-05-19T14:03:06;6.22;;;0.93;;
55210;SDS011;41082;52.822;6.666;2023-05-19T14:05:32;6.10;;;1.35;;
55210;SDS011;41082;52.822;6.666;2023-05-19T14:07:58;6.00;;;0.80;;
55210;SDS011;41082;52.822;6.666;2023-05-19T14:10:25;3.63;;;1.10;;
55210;SDS011;41082;52.822;6.666;2023-05-19T14:12:50;4.15;;;0.90;;
55210;SDS011;41082;52.822;6.666;2023-05-19T14:15:23;5.70;;;1.25;;
55210;SDS011;41082;52.822;6.666;2023-05-19T14:17:50;4.07;;;1.23;;
55210;SDS011;41082;52.822;6.666;2023-05-19T14:20:16;4.97;;;1.23;;
55210;SDS011;41082;52.822;6.666;2023-05-19T14:22:42;3.67;;;1.10;;
55210;SDS011;41082;52.822;6.666;2023-05-19T14:25:08;6.20;;;1.35;;
55210;SDS011;41082;52.822;6.666;2023-05-19T14:27:33;7.97;;;1.35;;
55210;SDS011;41082;52.822;6.666;2023-05-19T14:29:59;4.88;;;1.25;;
55210;SDS011;41082;52.822;6.666;2023-05-19T14:32:25;5.75;;;1.13;;
55210;SDS011;41082;52.822;6.666;2023-05-19T14:34:50;4.55;;;1.00;;
55210;SDS011;41082;52.822;6.666;2023-05-19T14:37:17;2.92;;;0.98;;
55210;SDS011;41082;52.822;6.666;2023-05-19T14:39:43;6.35;;;1.75;;
55210;SDS011;41082;52.822;6.666;2023-05-19T14:42:09;3.63;;;0.90;;
55210;SDS011;41082;52.822;6.666;2023-05-19T14:44:34;4.68;;;1.33;;
55210;SDS011;41082;52.822;6.666;2023-05-19T14:47:01;4.40;;;0.90;;
55210;SDS011;41082;52.822;6.666;2023-05-19T14:49:28;2.85;;;1.10;;
55210;SDS011;41082;52.822;6.666;2023-05-19T14:51:54;3.95;;;1.13;;
55210;SDS011;41082;52.822;6.666;2023-05-19T14:54:19;4.22;;;0.85;;
55210;SDS011;41082;52.822;6.666;2023-05-19T14:56:45;3.67;;;1.00;;
55210;SDS011;41082;52.822;6.666;2023-05-19T14:59:11;5.88;;;1.33;;
55210;SDS011;41082;52.822;6.666;2023-05-19T15:01:36;7.90;;;1.75;;
55210;SDS011;41082;52.822;6.666;2023-05-19T15:04:02;6.20;;;1.13;;
55210;SDS011;41082;52.822;6.666;2023-05-19T15:06:27;6.60;;;1.27;;
55210;SDS011;41082;52.822;6.666;2023-05-19T15:08:53;4.80;;;1.10;;
55210;SDS011;41082;52.822;6.666;2023-05-19T15:11:18;5.78;;;1.02;;
55210;SDS011;41082;52.822;6.666;2023-05-19T15:13:44;6.85;;;1.27;;
55210;SDS011;41082;52.822;6.666;2023-05-19T15:16:10;6.05;;;1.42;;
55210;SDS011;41082;52.822;6.666;2023-05-19T15:18:35;4.53;;;1.08;;
55210;SDS011;41082;52.822;6.666;2023-05-19T15:21:01;4.78;;;0.85;;